Time;durP1;ratioP1;P1;durP2;ratioP2;P2;SDS_P1;SDS_P2;PMS_P1;PMS_P2;Temp;Humidity;BMP_temperature;BMP_pressure;BME280_temperature;BME280_humidity;BME280_pressure;Samples;Min_cycle;Max_cycle;Signal;HPM_P1;HPM_P2
2023/08/27 00:01:45;;;;;;;14.40;11.60;;;;;;;23.17;69.60;100085.72;107683;1263;59995;-74
2023/08/27 00:04:13;;;;;;;13.50;12.00;;;;;;;23.17;69.38;100087.04;107720;1257;74587;-72
2023/08/27 00:06:41;;;;;;;14.40;12.90;;;;;;;23.14;69.50;100084.02;107699;1260;72518;-73
2023/08/27 00:09:08;;;;;;;14.30;12.80;;;;;;;23.10;69.70;100080.31;107797;1260;72826;-75
2023/08/27 00:11:36;;;;;;;13.60;12.20;;;;;;;23.08;69.75;100076.48;107738;1260;61871;-74
2023/08/27 00:14:04;;;;;;;16.00;12.80;;;;;;;23.07;69.72;100075.28;107691;1259;60286;-74
2023/08/27 00:16:31;;;;;;;13.90;12.10;;;;;;;23.07;69.76;100071.38;107678;1259;73705;-74
2023/08/27 00:18:59;;;;;;;16.60;12.00;;;;;;;23.06;69.76;100069.79;107685;1259;72934;-74
2023/08/27 00:21:27;;;;;;;14.60;12.20;;;;;;;23.04;69.87;100066.34;107692;1257;72923;-74
2023/08/27 00:23:54;;;;;;;14.30;12.80;;;;;;;23.02;69.97;100068.23;107692;1259;61779;-77
2023/08/27 00:26:22;;;;;;;13.40;12.00;;;;;;;23.01;70.08;100066.41;107708;1260;60307;-74
2023/08/27 00:28:50;;;;;;;13.10;11.70;;;;;;;23.01;70.00;100068.13;107689;1257;74038;-74
2023/08/27 00:31:17;;;;;;;14.00;11.50;;;;;;;22.99;70.11;100071.67;107650;1258;72904;-74
2023/08/27 00:33:45;;;;;;;15.90;12.70;;;;;;;22.98;69.94;100073.50;107554;1260;72720;-73
2023/08/27 00:36:12;;;;;;;14.20;11.60;;;;;;;22.95;70.02;100066.19;107633;1258;60498;-74
2023/08/27 00:38:40;;;;;;;15.10;12.00;;;;;;;22.91;70.08;100066.16;107686;1258;59625;-74
2023/08/27 00:41:09;;;;;;;13.20;11.80;;;;;;;22.90;70.26;100064.64;107652;1257;73175;-75
2023/08/27 00:43:37;;;;;;;14.00;12.50;;;;;;;22.90;70.42;100075.83;107715;1257;72510;-73
2023/08/27 00:46:06;;;;;;;14.90;12.20;;;;;;;22.89;70.51;100079.63;107598;1257;71742;-73
2023/08/27 00:48:33;;;;;;;13.80;12.10;;;;;;;22.86;70.51;100081.90;107645;1261;61075;-73
2023/08/27 00:51:02;;;;;;;14.80;12.60;;;;;;;22.83;70.55;100081.19;107649;1258;60341;-73
2023/08/27 00:53:31;;;;;;;14.00;12.40;;;;;;;22.81;70.64;100088.54;107581;1260;73966;-74
2023/08/27 00:55:59;;;;;;;13.60;12.20;;;;;;;22.77;70.66;100089.23;107616;1257;72962;-73
2023/08/27 00:58:28;;;;;;;14.10;12.20;;;;;;;22.75;70.89;100091.96;107567;1259;71727;-73
2023/08/27 01:00:55;;;;;;;13.00;11.70;;;;;;;22.69;70.74;100090.20;107673;1260;60750;-74
2023/08/27 01:03:24;;;;;;;13.70;11.70;;;;;;;22.65;70.76;100093.52;107612;1257;60303;-73
2023/08/27 01:05:52;;;;;;;14.00;12.20;;;;;;;22.62;70.79;100090.85;107671;1257;73863;-74
2023/08/27 01:08:34;;;;;;;13.20;11.40;;;;;;;22.58;70.70;100092.23;107584;1262;72891;-73
2023/08/27 01:11:10;;;;;;;13.30;11.10;;;;;;;22.55;70.71;100093.52;107583;1263;72689;-73
2023/08/27 01:13:46;;;;;;;14.20;11.80;;;;;;;22.51;70.70;100094.44;107592;1260;61315;-74
2023/08/27 01:16:14;;;;;;;12.80;11.40;;;;;;;22.47;70.91;100096.29;107646;1258;60546;-73
2023/08/27 01:18:41;;;;;;;13.90;11.40;;;;;;;22.45;70.81;100099.20;107614;1264;73926;-73
2023/08/27 01:21:22;;;;;;;12.60;11.00;;;;;;;22.44;70.97;100100.40;107539;1258;74248;-73
2023/08/27 01:23:50;;;;;;;15.10;12.70;;;;;;;22.46;70.91;100098.43;107649;1262;73333;-73
2023/08/27 01:26:40;;;;;;;13.60;11.90;;;;;;;22.47;70.90;100099.87;107687;1259;60459;-74
2023/08/27 01:29:23;;;;;;;13.00;11.60;;;;;;;22.46;70.74;100099.85;107670;1260;60533;-73
2023/08/27 01:32:22;;;;;;;14.10;12.40;;;;;;;22.45;70.57;100097.33;107597;1257;72657;-73
2023/08/27 01:34:50;;;;;;;14.90;13.20;;;;;;;22.43;70.50;100091.30;107690;1257;71808;-73
2023/08/27 01:37:18;;;;;;;15.20;12.50;;;;;;;22.45;70.50;100095.40;107609;1257;73036;-73
2023/08/27 01:39:46;;;;;;;14.00;11.70;;;;;;;22.47;70.26;100091.61;107687;1260;61054;-73
2023/08/27 01:42:14;;;;;;;14.40;11.60;;;;;;;22.47;70.16;100088.37;107729;1258;60274;-74
2023/08/27 01:44:42;;;;;;;13.70;11.70;;;;;;;22.47;70.26;100085.88;107693;1262;73973;-74
2023/08/27 01:47:12;;;;;;;12.70;10.80;;;;;;;22.45;70.35;100087.23;107676;1259;75024;-73
2023/08/27 01:49:40;;;;;;;12.60;11.30;;;;;;;22.42;70.32;100084.66;107681;1260;71485;-75
2023/08/27 01:52:08;;;;;;;12.20;10.90;;;;;;;22.39;70.30;100087.30;107618;1265;61686;-74
2023/08/27 01:54:35;;;;;;;13.00;10.70;;;;;;;22.38;70.30;100086.18;107809;1258;60496;-73
2023/08/27 01:57:04;;;;;;;12.40;11.00;;;;;;;22.35;70.31;100084.78;107732;1258;72716;-74
2023/08/27 01:59:32;;;;;;;12.80;11.40;;;;;;;22.32;70.46;100084.40;107798;1263;71312;-73
2023/08/27 02:01:59;;;;;;;12.40;10.70;;;;;;;22.30;70.37;100081.68;107529;1260;72724;-74
2023/08/27 02:04:28;;;;;;;11.80;10.60;;;;;;;22.23;70.34;100077.23;107650;1259;62004;-74
2023/08/27 02:06:56;;;;;;;11.40;9.70;;;;;;;22.14;70.65;100079.21;107622;1257;60203;-75
2023/08/27 02:09:23;;;;;;;11.70;10.20;;;;;;;22.07;70.79;100080.17;107661;1257;72650;-73
2023/08/27 02:11:52;;;;;;;10.40;9.40;;;;;;;22.05;70.89;100076.06;107736;1258;72692;-72
2023/08/27 02:14:19;;;;;;;11.40;9.90;;;;;;;22.05;70.91;100075.40;107627;1263;72132;-74
2023/08/27 02:16:47;;;;;;;11.00;9.40;;;;;;;22.04;70.99;100072.88;107664;1263;60648;-72
2023/08/27 02:19:15;;;;;;;11.70;9.80;;;;;;;22.00;70.90;100072.43;107740;1258;60496;-72
2023/08/27 02:21:43;;;;;;;11.30;9.30;;;;;;;21.93;70.98;100069.36;107719;1257;72660;-73
2023/08/27 02:24:12;;;;;;;11.70;9.80;;;;;;;21.88;70.87;100066.80;107749;1263;71623;-74
2023/08/27 02:26:40;;;;;;;12.30;9.90;;;;;;;21.81;70.88;100065.92;107631;1263;73040;-74
2023/08/27 02:29:07;;;;;;;12.40;10.40;;;;;;;21.74;70.91;100060.51;107636;1261;60387;-74
2023/08/27 02:31:35;;;;;;;14.10;10.70;;;;;;;21.72;70.99;100059.58;107547;1258;60430;-75
2023/08/27 02:34:03;;;;;;;12.00;10.00;;;;;;;21.68;70.93;100057.85;107628;1262;72653;-73
2023/08/27 02:36:31;;;;;;;12.50;10.70;;;;;;;21.65;70.97;100059.40;107678;1258;71597;-73
2023/08/27 02:38:59;;;;;;;14.60;11.40;;;;;;;21.64;71.05;100063.02;107692;1257;72698;-74
2023/08/27 02:41:26;;;;;;;14.20;10.70;;;;;;;21.66;71.42;100062.20;107736;1260;61521;-74
2023/08/27 02:43:55;;;;;;;13.00;10.40;;;;;;;21.66;71.63;100063.45;107600;1257;233536;-73
2023/08/27 02:46:23;;;;;;;14.30;10.60;;;;;;;21.63;71.98;100063.30;107829;1263;72647;-73
2023/08/27 02:48:50;;;;;;;12.70;11.00;;;;;;;21.56;71.85;100062.80;107618;1263;72706;-74
2023/08/27 02:51:18;;;;;;;13.50;11.70;;;;;;;21.48;71.79;100062.53;107710;1262;73814;-74
2023/08/27 02:53:46;;;;;;;17.10;12.40;;;;;;;21.42;72.04;100066.88;107663;1259;60409;-76
2023/08/27 02:56:13;;;;;;;13.20;11.20;;;;;;;21.43;72.17;100066.97;107758;1257;60404;-74
2023/08/27 02:58:41;;;;;;;13.80;12.00;;;;;;;21.45;72.08;100064.20;107622;1262;74283;-73
2023/08/27 03:01:09;;;;;;;13.20;11.30;;;;;;;21.44;72.21;100063.67;107526;1261;72044;-76
2023/08/27 03:03:37;;;;;;;14.10;12.00;;;;;;;21.50;72.05;100066.02;107566;1258;72791;-74
2023/08/27 03:06:05;;;;;;;14.70;11.30;;;;;;;21.53;72.20;100066.65;107603;1259;60999;-73
2023/08/27 03:08:33;;;;;;;13.90;11.00;;;;;;;21.51;71.93;100070.80;107707;1258;60518;-74
2023/08/27 03:11:01;;;;;;;13.00;11.00;;;;;;;21.48;72.19;100084.81;107585;1257;72754;-74
2023/08/27 03:13:29;;;;;;;14.30;11.90;;;;;;;21.40;72.72;100085.24;107685;1258;72855;-74
2023/08/27 03:15:57;;;;;;;15.00;12.10;;;;;;;21.36;73.11;100088.02;107725;1263;72711;-75
2023/08/27 03:18:24;;;;;;;15.00;13.50;;;;;;;21.38;73.62;100092.95;107486;1258;60591;-73
2023/08/27 03:20:52;;;;;;;16.60;13.90;;;;;;;21.41;74.09;100091.52;107739;1257;59634;-75
2023/08/27 03:23:20;;;;;;;16.80;15.00;;;;;;;21.48;74.46;100089.00;107649;1257;72685;-73
2023/08/27 03:25:49;;;;;;;16.90;14.00;;;;;;;21.57;74.37;100085.48;107716;1257;71958;-73
2023/08/27 03:28:16;;;;;;;18.40;15.30;;;;;;;21.67;74.42;100091.20;107767;1262;72738;-73
2023/08/27 03:30:44;;;;;;;44.70;29.60;;;;;;;21.74;73.98;100094.44;107534;1257;60312;-73
2023/08/27 03:33:12;;;;;;;40.30;28.60;;;;;;;21.83;73.56;100097.35;107807;1262;60253;-75
2023/08/27 03:35:40;;;;;;;28.10;20.10;;;;;;;21.93;73.25;100098.27;107618;1263;73850;-74
2023/08/27 03:38:07;;;;;;;20.90;16.60;;;;;;;22.04;73.10;100102.77;107841;1259;72770;-74
2023/08/27 03:40:35;;;;;;;21.20;14.90;;;;;;;22.15;72.86;100102.10;107677;1258;72666;-74
2023/08/27 03:43:03;;;;;;;23.80;17.60;;;;;;;22.27;72.60;100099.63;107661;1257;65188;-73
2023/08/27 03:45:31;;;;;;;21.70;18.70;;;;;;;22.37;72.28;100094.93;107755;1257;60303;-74
2023/08/27 03:47:59;;;;;;;21.30;17.60;;;;;;;22.48;71.88;100096.34;107559;1257;74119;-74
2023/08/27 03:50:27;;;;;;;21.70;17.60;;;;;;;22.58;71.70;100099.06;107722;1257;73484;-75
2023/08/27 03:52:55;;;;;;;25.30;20.20;;;;;;;22.65;71.27;100100.88;107760;1257;71937;-75
2023/08/27 03:55:25;;;;;;;25.90;20.20;;;;;;;22.71;71.06;100107.73;107833;1260;62576;-73
2023/08/27 03:57:53;;;;;;;22.30;18.00;;;;;;;22.76;70.77;100113.30;107675;1262;60284;-74
2023/08/27 04:00:21;;;;;;;20.50;16.20;;;;;;;22.83;70.56;100101.65;107734;1257;76267;-74
2023/08/27 04:02:49;;;;;;;20.70;16.60;;;;;;;22.88;70.44;100098.61;107723;1260;72497;-74
2023/08/27 04:05:16;;;;;;;22.30;16.20;;;;;;;22.94;70.23;100091.54;107659;1259;71667;-75
2023/08/27 04:07:44;;;;;;;19.20;16.40;;;;;;;23.00;70.10;100092.14;107628;1258;61689;-73
2023/08/27 04:10:12;;;;;;;18.70;15.80;;;;;;;23.04;69.86;100093.55;107594;1257;60310;-73
2023/08/27 04:12:39;;;;;;;21.40;16.20;;;;;;;23.09;69.49;100098.60;107687;1258;72492;-73
2023/08/27 04:15:08;;;;;;;16.40;14.20;;;;;;;23.16;69.40;100100.55;107704;1258;71635;-73
2023/08/27 04:17:37;;;;;;;19.80;15.30;;;;;;;23.20;69.03;100099.71;107866;1257;72747;-73
2023/08/27 04:20:06;;;;;;;16.10;14.30;;;;;;;23.25;68.59;100098.82;107598;1263;60632;-73
2023/08/27 04:22:34;;;;;;;19.30;14.40;;;;;;;23.30;68.04;100097.77;107813;1261;60296;-74
2023/08/27 04:25:04;;;;;;;16.60;14.80;;;;;;;23.36;67.84;100098.14;107618;1257;73515;-74
2023/08/27 04:27:32;;;;;;;17.50;14.20;;;;;;;23.45;67.66;100104.65;107704;1258;71625;-73
2023/08/27 04:30:03;;;;;;;17.90;15.00;;;;;;;23.55;67.50;100105.81;107720;1258;71776;-73
2023/08/27 04:32:31;;;;;;;17.60;14.10;;;;;;;23.67;67.12;100098.21;107872;1258;61779;-73
2023/08/27 04:35:00;;;;;;;16.50;13.50;;;;;;;23.78;66.88;100094.83;107640;1257;59426;-73
2023/08/27 04:37:27;;;;;;;15.70;13.40;;;;;;;23.90;66.50;100096.39;107618;1257;73955;-74
2023/08/27 04:39:55;;;;;;;17.00;13.80;;;;;;;24.02;66.22;100098.83;107569;1263;71727;-73
2023/08/27 04:42:22;;;;;;;17.80;14.60;;;;;;;24.18;65.91;100097.64;107848;1260;71911;-74
2023/08/27 04:44:50;;;;;;;17.40;14.90;;;;;;;24.33;65.53;100096.08;107679;1260;60953;-73
2023/08/27 04:47:18;;;;;;;14.90;13.20;;;;;;;24.52;64.89;100096.06;107620;1257;60101;-72
2023/08/27 04:49:45;;;;;;;18.30;13.60;;;;;;;24.69;64.43;100097.70;107852;1257;72786;-74
2023/08/27 04:52:14;;;;;;;19.40;14.30;;;;;;;24.85;64.07;100101.80;107800;1261;72109;-73
2023/08/27 04:54:58;;;;;;;18.40;13.80;;;;;;;25.05;63.43;100098.23;107506;1257;72806;-74
2023/08/27 04:57:26;;;;;;;15.10;13.50;;;;;;;25.21;62.87;100096.24;107628;1257;60776;-74
2023/08/27 04:59:54;;;;;;;16.40;13.70;;;;;;;25.36;62.44;100090.98;107744;1262;60297;-74
2023/08/27 05:02:22;;;;;;;17.40;13.60;;;;;;;25.51;61.97;100091.44;107702;1257;76424;-73
2023/08/27 05:04:50;;;;;;;19.10;15.10;;;;;;;25.64;61.45;100086.61;107579;1258;71614;-73
2023/08/27 05:07:18;;;;;;;16.60;14.50;;;;;;;25.77;60.67;100082.73;107541;1259;71487;-73
2023/08/27 05:09:46;;;;;;;16.60;13.30;;;;;;;25.90;60.10;100076.59;107744;1257;60283;-73
2023/08/27 05:12:14;;;;;;;17.00;14.70;;;;;;;26.05;59.76;100074.43;107776;1258;60348;-74
2023/08/27 05:14:42;;;;;;;16.20;14.30;;;;;;;26.17;59.16;100073.61;107600;1257;73910;-74
2023/08/27 05:17:10;;;;;;;15.90;14.00;;;;;;;26.26;58.69;100073.34;107729;1257;71476;-74
2023/08/27 05:19:38;;;;;;;17.00;14.20;;;;;;;26.34;58.61;100078.73;107478;1257;72484;-74
2023/08/27 05:22:06;;;;;;;17.00;14.90;;;;;;;26.40;58.38;100079.96;107792;1260;60901;-75
2023/08/27 05:24:35;;;;;;;17.30;15.10;;;;;;;26.45;58.19;100080.18;107767;1257;59362;-74
2023/08/27 05:27:04;;;;;;;16.90;15.20;;;;;;;26.50;57.69;100080.88;107736;1259;73416;-72
2023/08/27 05:29:32;;;;;;;18.30;15.10;;;;;;;26.55;57.56;100085.07;107607;1257;74842;-73
2023/08/27 05:31:59;;;;;;;17.30;15.00;;;;;;;26.64;57.53;100083.20;107649;1258;71617;-74
2023/08/27 05:34:27;;;;;;;16.70;15.00;;;;;;;26.74;57.43;100080.63;107622;1259;60428;-73
2023/08/27 05:36:55;;;;;;;16.90;14.50;;;;;;;26.82;56.93;100074.83;107565;1257;60443;-73
2023/08/27 05:39:23;;;;;;;19.30;14.00;;;;;;;26.90;56.80;100069.55;107645;1257;73986;-75
2023/08/27 05:41:51;;;;;;;17.30;13.90;;;;;;;26.96;56.55;100069.61;107732;1259;72890;-73
2023/08/27 05:44:18;;;;;;;15.50;13.90;;;;;;;27.00;56.35;100070.66;107718;1257;72740;-74
2023/08/27 05:46:46;;;;;;;16.50;13.90;;;;;;;27.05;56.31;100073.99;107539;1260;60452;-73
2023/08/27 05:49:14;;;;;;;15.50;13.60;;;;;;;27.13;56.25;100070.39;107798;1258;60270;-73
2023/08/27 05:51:41;;;;;;;15.50;13.90;;;;;;;27.19;55.96;100069.98;107608;1259;72690;-73
2023/08/27 05:54:09;;;;;;;14.90;12.80;;;;;;;27.26;56.02;100070.48;107807;1257;72030;-73
2023/08/27 05:56:39;;;;;;;15.20;13.60;;;;;;;27.34;55.77;100067.02;107644;1257;70543;-73
2023/08/27 05:59:09;;;;;;;;;;;;;;;27.41;55.55;100062.02;107800;1260;59477;-74
2023/08/27 06:01:36;;;;;;;16.50;13.40;;;;;;;27.49;55.08;100058.48;107553;1257;61643;-73
2023/08/27 06:04:04;;;;;;;15.30;13.40;;;;;;;27.56;55.03;100057.27;107501;1257;73925;-73
2023/08/27 06:06:32;;;;;;;15.10;12.90;;;;;;;27.67;54.70;100060.60;107682;1257;75095;-73
2023/08/27 06:08:59;;;;;;;16.30;13.60;;;;;;;27.75;54.64;100054.63;107560;1257;70979;-73
2023/08/27 06:11:27;;;;;;;15.40;12.90;;;;;;;27.83;54.54;100054.42;107733;1260;60326;-73
2023/08/27 06:13:54;;;;;;;14.20;12.80;;;;;;;27.90;54.51;100054.38;107598;1258;60435;-74
2023/08/27 06:16:22;;;;;;;14.70;13.20;;;;;;;27.96;54.55;100052.42;107638;1258;65069;-74
2023/08/27 06:18:50;;;;;;;14.70;11.70;;;;;;;28.06;54.55;100060.00;107423;1256;71311;-73
2023/08/27 06:21:17;;;;;;;13.80;12.30;;;;;;;28.16;54.39;100060.51;107621;1260;62555;-73
2023/08/27 06:23:46;;;;;;;13.90;11.70;;;;;;;28.28;54.30;100059.42;107475;1258;60331;-73
2023/08/27 06:26:14;;;;;;;13.90;11.80;;;;;;;28.40;54.13;100057.11;107531;1257;60322;-73
2023/08/27 06:28:42;;;;;;;14.30;11.90;;;;;;;28.52;53.65;100055.25;107524;1257;72655;-74
2023/08/27 06:31:09;;;;;;;15.10;12.70;;;;;;;28.64;53.34;100047.89;107621;1257;63759;-72
2023/08/27 06:33:38;;;;;;;13.50;12.20;;;;;;;28.75;52.90;100048.28;107467;1257;64883;-73
2023/08/27 06:36:06;;;;;;;13.50;12.10;;;;;;;28.87;52.78;100046.86;107577;1260;60451;-73
2023/08/27 06:38:34;;;;;;;13.40;11.30;;;;;;;28.97;52.69;100046.95;107479;1257;60312;-73
2023/08/27 06:41:02;;;;;;;13.10;11.20;;;;;;;29.07;52.22;100048.29;107569;1257;64958;-72
2023/08/27 06:43:32;;;;;;;12.50;11.20;;;;;;;29.11;51.75;100047.02;107629;1257;64408;-73
2023/08/27 06:45:59;;;;;;;11.50;9.70;;;;;;;29.14;51.79;100046.55;107490;1263;63757;-73
2023/08/27 06:48:27;;;;;;;12.20;11.00;;;;;;;29.22;51.19;100043.55;107602;1259;60319;-76
2023/08/27 06:50:55;;;;;;;12.30;10.50;;;;;;;29.31;51.17;100041.48;107615;1258;59651;-73
2023/08/27 06:53:23;;;;;;;11.70;10.30;;;;;;;29.43;50.72;100042.00;107790;1257;63671;-74
2023/08/27 06:55:51;;;;;;;13.60;11.00;;;;;;;29.52;50.84;100037.34;107496;1257;63973;-73
2023/08/27 06:58:19;;;;;;;12.80;11.20;;;;;;;29.61;50.38;100035.96;107693;1259;64305;-72
2023/08/27 07:00:47;;;;;;;11.70;10.50;;;;;;;29.74;50.12;100032.00;107548;1257;59732;-73
2023/08/27 07:03:15;;;;;;;11.40;10.20;;;;;;;29.85;49.64;100029.75;107568;1257;60406;-74
2023/08/27 07:05:44;;;;;;;11.90;10.40;;;;;;;29.95;49.61;100027.49;107601;1257;63825;-72
2023/08/27 07:08:12;;;;;;;11.50;10.10;;;;;;;30.06;49.59;100024.99;108071;1257;64191;-74
2023/08/27 07:10:40;;;;;;;11.10;10.10;;;;;;;30.17;48.73;100025.02;107832;1257;64067;-72
2023/08/27 07:13:08;;;;;;;11.30;9.50;;;;;;;30.28;48.58;100025.20;107598;1259;59135;-74
2023/08/27 07:15:35;;;;;;;11.30;9.20;;;;;;;30.36;48.36;100028.14;107621;1257;60335;-74
2023/08/27 07:18:03;;;;;;;11.20;9.70;;;;;;;30.41;48.04;100028.18;107400;1257;64949;-74
2023/08/27 07:20:33;;;;;;;14.20;9.20;;;;;;;30.49;47.84;100032.52;107417;1257;62681;-72
2023/08/27 07:23:01;;;;;;;10.50;9.40;;;;;;;30.57;47.60;100035.06;107525;1257;64009;-75
2023/08/27 07:25:29;;;;;;;10.80;8.20;;;;;;;30.68;47.40;100033.72;107445;1257;60430;-74
2023/08/27 07:27:57;;;;;;;9.50;8.20;;;;;;;30.77;47.17;100034.21;107650;1260;60428;-73
2023/08/27 07:30:25;;;;;;;9.00;8.10;;;;;;;30.88;47.38;100033.02;107583;1257;67538;-73
2023/08/27 07:32:52;;;;;;;10.40;8.20;;;;;;;30.98;46.47;100030.33;107388;1259;63760;-73
2023/08/27 07:35:20;;;;;;;9.80;7.80;;;;;;;31.02;46.35;100033.52;107576;1260;62524;-74
2023/08/27 07:37:49;;;;;;;10.00;8.30;;;;;;;31.12;46.31;100034.60;107597;1258;60440;-72
2023/08/27 07:40:18;;;;;;;9.40;7.50;;;;;;;31.24;45.77;100032.73;107452;1260;60323;-72
2023/08/27 07:42:46;;;;;;;8.60;7.70;;;;;;;31.35;45.50;100033.03;107348;1262;66000;-72
2023/08/27 07:45:14;;;;;;;9.30;7.60;;;;;;;31.45;45.18;100035.14;107511;1257;64182;-73
2023/08/27 07:47:41;;;;;;;10.30;7.80;;;;;;;31.54;44.69;100040.39;107609;1258;63813;-73
2023/08/27 07:50:09;;;;;;;8.70;7.90;;;;;;;31.65;44.47;100047.59;107469;1259;60440;-74
2023/08/27 07:52:41;;;;;;;9.40;8.40;;;;;;;31.70;43.98;100048.57;107658;1257;60307;-73
2023/08/27 07:55:08;;;;;;;;;;;;;;;31.75;43.88;100050.30;107407;1258;63734;-73
2023/08/27 07:57:36;;;;;;;8.00;7.20;;;;;;;31.86;43.81;100048.38;107280;1257;62803;-73
2023/08/27 08:00:06;;;;;;;10.60;8.30;;;;;;;31.96;43.72;100052.59;107407;1258;63801;-73
2023/08/27 08:02:40;;;;;;;9.70;8.30;;;;;;;32.07;43.71;100050.95;107720;1257;61135;-74
2023/08/27 08:05:09;;;;;;;10.90;9.20;;;;;;;32.12;43.69;100053.25;108295;1257;61212;-74
2023/08/27 08:07:37;;;;;;;9.90;8.60;;;;;;;32.09;43.45;100053.60;107426;1259;65839;-74
2023/08/27 08:10:05;;;;;;;11.20;9.10;;;;;;;32.10;43.33;100054.23;107544;1258;63973;-72
2023/08/27 08:12:32;;;;;;;9.90;8.90;;;;;;;32.16;43.35;100053.35;107618;1257;62524;-71
2023/08/27 08:15:00;;;;;;;9.90;8.80;;;;;;;32.21;43.56;100054.06;107461;1262;61111;-72
2023/08/27 08:17:28;;;;;;;9.80;8.80;;;;;;;32.25;43.65;100051.95;107443;1257;61092;-72
2023/08/27 08:20:12;;;;;;;12.60;8.90;;;;;;;32.29;43.29;100051.73;107499;1257;65893;-76
2023/08/27 08:22:40;;;;;;;10.10;9.00;;;;;;;32.34;43.08;100052.29;107469;1257;64029;-72
2023/08/27 08:25:08;;;;;;;10.20;8.60;;;;;;;32.44;42.82;100047.11;107466;1259;74988;-73
2023/08/27 08:27:35;;;;;;;9.80;8.80;;;;;;;32.54;42.90;100045.21;107518;1258;61013;-73
2023/08/27 08:30:04;;;;;;;12.10;8.70;;;;;;;32.66;42.93;100047.94;107547;1257;61128;-71
2023/08/27 08:32:31;;;;;;;10.00;9.00;;;;;;;32.73;42.76;100047.75;107548;1257;65274;-71
2023/08/27 08:34:59;;;;;;;11.20;9.90;;;;;;;32.79;42.45;100048.68;107470;1259;65756;-73
2023/08/27 08:37:27;;;;;;;12.20;9.20;;;;;;;32.82;42.17;100047.13;107460;1257;74129;-71
2023/08/27 08:39:54;;;;;;;12.30;9.90;;;;;;;32.91;42.38;100051.09;107575;1257;61291;-71
2023/08/27 08:42:32;;;;;;;10.60;9.40;;;;;;;33.08;42.45;100047.01;107583;1257;61107;-71
2023/08/27 08:45:19;;;;;;;10.50;8.90;;;;;;;33.29;41.80;100042.35;107367;1257;68162;-71
2023/08/27 08:47:47;;;;;;;10.30;8.80;;;;;;;33.41;41.44;100041.88;108468;1257;66182;-72
2023/08/27 08:50:15;;;;;;;10.10;9.10;;;;;;;33.44;41.33;100040.10;107826;1257;64881;-72
2023/08/27 08:52:43;;;;;;;9.90;8.50;;;;;;;33.45;41.44;100036.98;108438;1257;59416;-73
2023/08/27 08:55:11;;;;;;;10.60;9.50;;;;;;;33.47;41.15;100037.27;107508;1257;61215;-73
2023/08/27 08:57:43;;;;;;;9.60;8.60;;;;;;;33.50;41.32;100040.37;107451;1257;65753;-72
2023/08/27 09:00:11;;;;;;;9.90;8.30;;;;;;;33.61;41.07;100039.77;108595;1257;64241;-72
2023/08/27 09:02:39;;;;;;;9.40;7.90;;;;;;;33.75;40.01;100034.16;107957;1257;63775;-72
2023/08/27 09:05:09;;;;;;;10.70;8.40;;;;;;;33.78;38.93;100031.80;107628;1257;60204;-73
2023/08/27 09:07:38;;;;;;;9.10;7.70;;;;;;;33.72;38.74;100035.20;107413;1257;61253;-71
2023/08/27 09:10:06;;;;;;;8.40;7.50;;;;;;;33.65;38.82;100034.38;107436;1257;66108;-72
2023/08/27 09:12:35;;;;;;;8.90;7.90;;;;;;;33.65;38.68;100031.54;107435;1257;64458;-71
2023/08/27 09:15:03;;;;;;;8.20;7.10;;;;;;;33.74;38.71;100029.61;107451;1258;63872;-73
2023/08/27 09:17:30;;;;;;;8.30;7.40;;;;;;;33.79;38.74;100024.66;107570;1257;61338;-73
2023/08/27 09:19:58;;;;;;;9.10;7.30;;;;;;;33.89;38.15;100019.55;107735;1258;61367;-73
2023/08/27 09:22:26;;;;;;;7.10;6.10;;;;;;;33.96;37.14;100014.55;107477;1257;65821;-73
2023/08/27 09:24:53;;;;;;;8.00;5.40;;;;;;;33.99;36.17;100015.38;108123;1257;63951;-73
2023/08/27 09:27:21;;;;;;;6.80;5.00;;;;;;;33.95;35.00;100012.30;107827;1257;62556;-73
2023/08/27 09:29:49;;;;;;;7.70;5.60;;;;;;;33.89;34.36;100006.24;107839;1262;59346;-72
2023/08/27 09:32:21;;;;;;;9.60;5.70;;;;;;;33.90;34.86;100005.92;107660;1257;61136;-72
2023/08/27 09:34:49;;;;;;;6.60;5.70;;;;;;;33.96;34.90;100006.65;107704;1261;64559;-73
2023/08/27 09:37:16;;;;;;;7.30;4.70;;;;;;;34.02;34.81;100009.05;108433;1257;63388;-74
2023/08/27 09:39:45;;;;;;;8.60;5.10;;;;;;;34.08;34.18;100003.61;107461;1259;66160;-74
2023/08/27 09:42:12;;;;;;;5.20;4.40;;;;;;;34.18;33.59;100001.17;107613;1258;61250;-73
2023/08/27 09:44:47;;;;;;;6.50;3.90;;;;;;;34.20;32.78;100003.04;107995;1257;61031;-72
2023/08/27 09:47:15;;;;;;;7.10;4.70;;;;;;;34.18;32.59;100002.29;108802;1257;65934;-72
2023/08/27 09:49:43;;;;;;;6.60;5.30;;;;;;;34.21;32.73;100005.53;108787;1259;65925;-73
2023/08/27 09:52:11;;;;;;;6.80;4.90;;;;;;;34.25;32.99;99999.20;107851;1262;63849;-71
2023/08/27 09:54:38;;;;;;;7.70;5.20;;;;;;;34.29;33.45;100004.33;107614;1262;61100;-74
2023/08/27 09:57:06;;;;;;;7.30;5.30;;;;;;;34.35;33.57;100005.91;108296;1257;62348;-72
2023/08/27 09:59:34;;;;;;;6.90;5.00;;;;;;;34.43;34.12;100005.58;107479;1258;64696;-70
2023/08/27 10:02:01;;;;;;;8.80;6.00;;;;;;;34.52;33.96;100001.31;107516;1258;64063;-71
2023/08/27 10:04:29;;;;;;;8.00;5.60;;;;;;;34.61;33.99;100001.41;107513;1257;63910;-71
2023/08/27 10:06:57;;;;;;;7.50;5.80;;;;;;;34.67;34.05;100002.92;108035;1257;61676;-71
2023/08/27 10:09:32;;;;;;;8.40;5.60;;;;;;;34.69;33.75;100002.63;107610;1257;61129;-72
2023/08/27 10:12:00;;;;;;;6.30;5.70;;;;;;;34.68;33.70;100005.98;108783;1259;65755;-72
2023/08/27 10:14:30;;;;;;;6.90;5.70;;;;;;;34.70;34.17;100004.52;108823;1257;64947;-72
2023/08/27 10:16:58;;;;;;;7.00;5.90;;;;;;;34.72;34.21;100000.11;107698;1259;63361;-71
2023/08/27 10:19:26;;;;;;;9.90;5.90;;;;;;;34.71;34.20;100000.85;107526;1259;61127;-72
2023/08/27 10:21:53;;;;;;;7.80;5.90;;;;;;;34.72;34.24;100004.77;107589;1257;61576;-71
2023/08/27 10:24:21;;;;;;;7.10;5.50;;;;;;;34.78;34.28;100007.48;108093;1257;65957;-71
2023/08/27 10:26:51;;;;;;;7.00;5.40;;;;;;;34.81;33.85;100008.52;107783;1257;63013;-71
2023/08/27 10:29:20;;;;;;;7.40;5.00;;;;;;;34.75;33.41;100008.91;108476;1257;63819;-71
2023/08/27 10:31:48;;;;;;;6.00;4.80;;;;;;;34.62;33.45;100009.86;107876;1257;60271;-72
2023/08/27 10:34:16;;;;;;;6.90;4.70;;;;;;;34.51;33.20;100010.05;107689;1257;60110;-72
2023/08/27 10:36:43;;;;;;;6.50;4.50;;;;;;;34.47;33.24;100001.27;108246;1257;66059;-72
2023/08/27 10:39:12;;;;;;;5.70;4.00;;;;;;;34.51;33.36;99989.77;107594;1257;62707;-72
2023/08/27 10:41:39;;;;;;;6.80;4.30;;;;;;;34.59;32.95;99985.15;107500;1260;63898;-71
2023/08/27 10:44:09;;;;;;;5.80;4.30;;;;;;;34.65;32.34;99979.44;107741;1259;61154;-72
2023/08/27 10:46:37;;;;;;;5.10;4.20;;;;;;;34.69;32.32;99977.04;107608;1261;59379;-72
2023/08/27 10:49:14;;;;;;;5.90;3.90;;;;;;;34.71;32.05;99973.34;108072;1257;65788;-73
2023/08/27 10:51:42;;;;;;;5.50;4.20;;;;;;;34.68;32.13;99971.59;108864;1257;62583;-73
2023/08/27 10:54:10;;;;;;;6.00;4.50;;;;;;;34.69;32.70;99973.48;108813;1256;64040;-71
2023/08/27 10:56:39;;;;;;;5.60;4.50;;;;;;;34.75;32.24;99975.15;108487;1259;61366;-72
2023/08/27 10:59:11;;;;;;;5.70;4.40;;;;;;;34.78;31.87;99975.15;108282;1257;59511;-71
2023/08/27 11:01:58;;;;;;;5.70;4.20;;;;;;;34.77;31.83;99969.45;107701;1257;67917;-72
2023/08/27 11:04:39;;;;;;;6.40;4.50;;;;;;;34.79;31.96;99964.42;107713;1259;63832;-71
2023/08/27 11:07:09;;;;;;;6.00;4.30;;;;;;;34.80;31.95;99959.56;107601;1258;62464;-71
2023/08/27 11:09:52;;;;;;;4.90;4.40;;;;;;;34.81;31.61;99955.66;107528;1257;59505;-70
2023/08/27 11:12:28;;;;;;;5.80;4.60;;;;;;;34.83;31.93;99950.54;107485;1258;61333;-71
2023/08/27 11:15:10;;;;;;;6.30;4.40;;;;;;;34.85;31.93;99950.45;107623;1257;65750;-71